sensor_id;sensor_type;location;lat;lon;timestamp;P1;durP1;ratioP1;P2;durP2;ratioP2
38123;SDS011;23934;47.998;9.832;2023-02-28T00:00:00;4.25;;;1.42;;
38123;SDS011;23934;47.998;9.832;2023-02-28T00:02:34;5.47;;;2.05;;
38123;SDS011;23934;47.998;9.832;2023-02-28T00:05:00;4.00;;;1.88;;
38123;SDS011;23934;47.998;9.832;2023-02-28T00:07:26;6.43;;;2.08;;
38123;SDS011;23934;47.998;9.832;2023-02-28T00:09:53;3.78;;;1.13;;
38123;SDS011;23934;47.998;9.832;2023-02-28T00:12:18;4.97;;;1.88;;
38123;SDS011;23934;47.998;9.832;2023-02-28T00:14:45;2.97;;;1.75;;
38123;SDS011;23934;47.998;9.832;2023-02-28T00:17:11;1.77;;;0.80;;
38123;SDS011;23934;47.998;9.832;2023-02-28T00:19:37;3.20;;;0.88;;
38123;SDS011;23934;47.998;9.832;2023-02-28T00:22:02;4.60;;;2.30;;
38123;SDS011;23934;47.998;9.832;2023-02-28T00:24:28;6.47;;;1.90;;
38123;SDS011;23934;47.998;9.832;2023-02-28T00:26:54;4.28;;;2.00;;
38123;SDS011;23934;47.998;9.832;2023-02-28T00:29:20;4.85;;;1.40;;
38123;SDS011;23934;47.998;9.832;2023-02-28T00:31:46;3.63;;;1.48;;
38123;SDS011;23934;47.998;9.832;2023-02-28T00:34:12;4.00;;;1.73;;
38123;SDS011;23934;47.998;9.832;2023-02-28T00:36:38;2.80;;;1.52;;
38123;SDS011;23934;47.998;9.832;2023-02-28T00:39:05;2.05;;;0.93;;
38123;SDS011;23934;47.998;9.832;2023-02-28T00:41:31;5.70;;;2.05;;
38123;SDS011;23934;47.998;9.832;2023-02-28T00:43:57;4.32;;;1.45;;
38123;SDS011;23934;47.998;9.832;2023-02-28T00:46:23;2.38;;;1.27;;
38123;SDS011;23934;47.998;9.832;2023-02-28T00:48:49;2.67;;;1.35;;
38123;SDS011;23934;47.998;9.832;2023-02-28T00:51:15;2.85;;;1.35;;
38123;SDS011;23934;47.998;9.832;2023-02-28T00:53:41;4.68;;;1.67;;
38123;SDS011;23934;47.998;9.832;2023-02-28T00:56:07;1.65;;;1.15;;
38123;SDS011;23934;47.998;9.832;2023-02-28T00:58:33;8.70;;;1.73;;
38123;SDS011;23934;47.998;9.832;2023-02-28T01:00:59;5.32;;;2.80;;
38123;SDS011;23934;47.998;9.832;2023-02-28T01:03:25;3.67;;;1.65;;
38123;SDS011;23934;47.998;9.832;2023-02-28T01:05:51;3.30;;;1.63;;
38123;SDS011;23934;47.998;9.832;2023-02-28T01:08:18;4.50;;;1.63;;
38123;SDS011;23934;47.998;9.832;2023-02-28T01:10:44;5.45;;;1.67;;
38123;SDS011;23934;47.998;9.832;2023-02-28T01:13:10;4.85;;;1.00;;
38123;SDS011;23934;47.998;9.832;2023-02-28T01:15:36;6.70;;;2.05;;
38123;SDS011;23934;47.998;9.832;2023-02-28T01:18:02;4.35;;;1.30;;
38123;SDS011;23934;47.998;9.832;2023-02-28T01:20:28;2.22;;;1.27;;
38123;SDS011;23934;47.998;9.832;2023-02-28T01:22:54;3.00;;;1.85;;
38123;SDS011;23934;47.998;9.832;2023-02-28T01:25:20;3.10;;;1.13;;
38123;SDS011;23934;47.998;9.832;2023-02-28T01:27:46;5.45;;;2.05;;
38123;SDS011;23934;47.998;9.832;2023-02-28T01:30:12;1.20;;;0.93;;
38123;SDS011;23934;47.998;9.832;2023-02-28T01:32:39;1.35;;;0.90;;
38123;SDS011;23934;47.998;9.832;2023-02-28T01:35:05;4.88;;;1.98;;
38123;SDS011;23934;47.998;9.832;2023-02-28T01:37:31;2.15;;;1.00;;
38123;SDS011;23934;47.998;9.832;2023-02-28T01:39:57;3.50;;;1.30;;
38123;SDS011;23934;47.998;9.832;2023-02-28T01:42:23;8.60;;;2.22;;
38123;SDS011;23934;47.998;9.832;2023-02-28T01:47:38;2.85;;;1.08;;
38123;SDS011;23934;47.998;9.832;2023-02-28T01:50:07;1.00;;;0.90;;
38123;SDS011;23934;47.998;9.832;2023-02-28T01:52:35;4.30;;;2.17;;
38123;SDS011;23934;47.998;9.832;2023-02-28T01:55:02;3.50;;;2.05;;
38123;SDS011;23934;47.998;9.832;2023-02-28T01:57:32;2.03;;;1.13;;
38123;SDS011;23934;47.998;9.832;2023-02-28T02:00:04;4.43;;;1.45;;
38123;SDS011;23934;47.998;9.832;2023-02-28T02:02:34;2.45;;;1.13;;
38123;SDS011;23934;47.998;9.832;2023-02-28T02:05:06;2.25;;;1.20;;
38123;SDS011;23934;47.998;9.832;2023-02-28T02:07:35;4.88;;;3.00;;
38123;SDS011;23934;47.998;9.832;2023-02-28T02:10:03;4.47;;;0.63;;
38123;SDS011;23934;47.998;9.832;2023-02-28T02:15:11;1.75;;;1.20;;
38123;SDS011;23934;47.998;9.832;2023-02-28T02:17:42;17.80;;;2.10;;
38123;SDS011;23934;47.998;9.832;2023-02-28T02:25:28;7.13;;;2.05;;
38123;SDS011;23934;47.998;9.832;2023-02-28T02:30:37;3.20;;;1.55;;
38123;SDS011;23934;47.998;9.832;2023-02-28T02:35:43;3.25;;;1.35;;
38123;SDS011;23934;47.998;9.832;2023-02-28T02:40:57;3.50;;;2.10;;
38123;SDS011;23934;47.998;9.832;2023-02-28T02:43:25;6.40;;;2.17;;
38123;SDS011;23934;47.998;9.832;2023-02-28T02:45:55;1.95;;;1.40;;
38123;SDS011;23934;47.998;9.832;2023-02-28T02:48:24;20.80;;;1.60;;
38123;SDS011;23934;47.998;9.832;2023-02-28T02:51:01;1.92;;;1.25;;
38123;SDS011;23934;47.998;9.832;2023-02-28T02:53:29;3.72;;;2.40;;
38123;SDS011;23934;47.998;9.832;2023-02-28T02:55:56;4.80;;;1.90;;
38123;SDS011;23934;47.998;9.832;2023-02-28T02:58:24;9.68;;;2.67;;
38123;SDS011;23934;47.998;9.832;2023-02-28T03:00:53;5.05;;;2.17;;
38123;SDS011;23934;47.998;9.832;2023-02-28T03:03:20;2.92;;;1.70;;
38123;SDS011;23934;47.998;9.832;2023-02-28T03:05:53;5.45;;;2.28;;
38123;SDS011;23934;47.998;9.832;2023-02-28T03:08:19;5.47;;;1.63;;
38123;SDS011;23934;47.998;9.832;2023-02-28T03:10:46;6.10;;;2.78;;
38123;SDS011;23934;47.998;9.832;2023-02-28T03:18:52;7.13;;;2.08;;
38123;SDS011;23934;47.998;9.832;2023-02-28T03:21:15;7.50;;;2.80;;
38123;SDS011;23934;47.998;9.832;2023-02-28T03:23:45;7.68;;;2.80;;
38123;SDS011;23934;47.998;9.832;2023-02-28T03:26:13;7.55;;;2.60;;
38123;SDS011;23934;47.998;9.832;2023-02-28T03:31:21;6.50;;;2.15;;
38123;SDS011;23934;47.998;9.832;2023-02-28T03:33:54;17.92;;;2.08;;
38123;SDS011;23934;47.998;9.832;2023-02-28T03:36:22;4.68;;;2.33;;
38123;SDS011;23934;47.998;9.832;2023-02-28T03:38:51;12.98;;;3.28;;
38123;SDS011;23934;47.998;9.832;2023-02-28T03:43:54;4.70;;;2.17;;
38123;SDS011;23934;47.998;9.832;2023-02-28T03:46:21;4.43;;;1.55;;
38123;SDS011;23934;47.998;9.832;2023-02-28T03:48:49;15.50;;;4.45;;
38123;SDS011;23934;47.998;9.832;2023-02-28T03:51:17;4.72;;;2.53;;
38123;SDS011;23934;47.998;9.832;2023-02-28T03:53:45;4.57;;;2.60;;
38123;SDS011;23934;47.998;9.832;2023-02-28T03:56:16;6.75;;;2.17;;
38123;SDS011;23934;47.998;9.832;2023-02-28T03:58:51;5.28;;;2.05;;
38123;SDS011;23934;47.998;9.832;2023-02-28T04:03:49;8.30;;;2.47;;
38123;SDS011;23934;47.998;9.832;2023-02-28T04:06:16;3.55;;;1.80;;
38123;SDS011;23934;47.998;9.832;2023-02-28T04:08:43;7.28;;;2.80;;
38123;SDS011;23934;47.998;9.832;2023-02-28T04:13:47;4.13;;;2.17;;
38123;SDS011;23934;47.998;9.832;2023-02-28T04:16:13;3.85;;;2.13;;
38123;SDS011;23934;47.998;9.832;2023-02-28T04:18:39;4.38;;;2.70;;
38123;SDS011;23934;47.998;9.832;2023-02-28T04:21:06;7.40;;;3.13;;
38123;SDS011;23934;47.998;9.832;2023-02-28T04:23:32;10.93;;;2.72;;
38123;SDS011;23934;47.998;9.832;2023-02-28T04:25:58;5.43;;;2.30;;
38123;SDS011;23934;47.998;9.832;2023-02-28T04:28:25;3.25;;;1.90;;
38123;SDS011;23934;47.998;9.832;2023-02-28T04:31:10;16.30;;;4.07;;
38123;SDS011;23934;47.998;9.832;2023-02-28T04:33:36;4.53;;;2.38;;
38123;SDS011;23934;47.998;9.832;2023-02-28T04:36:05;11.05;;;3.63;;
38123;SDS011;23934;47.998;9.832;2023-02-28T04:38:33;6.78;;;2.50;;
38123;SDS011;23934;47.998;9.832;2023-02-28T04:41:00;4.68;;;1.67;;
38123;SDS011;23934;47.998;9.832;2023-02-28T04:43:26;3.55;;;1.75;;
38123;SDS011;23934;47.998;9.832;2023-02-28T04:45:53;3.30;;;1.40;;
38123;SDS011;23934;47.998;9.832;2023-02-28T04:48:25;6.35;;;2.83;;
38123;SDS011;23934;47.998;9.832;2023-02-28T04:50:51;4.80;;;2.25;;
38123;SDS011;23934;47.998;9.832;2023-02-28T04:53:17;20.33;;;3.22;;
38123;SDS011;23934;47.998;9.832;2023-02-28T04:55:43;7.25;;;2.95;;
38123;SDS011;23934;47.998;9.832;2023-02-28T04:58:10;13.55;;;3.35;;
38123;SDS011;23934;47.998;9.832;2023-02-28T05:00:36;9.73;;;3.13;;
38123;SDS011;23934;47.998;9.832;2023-02-28T05:03:02;10.48;;;4.20;;
38123;SDS011;23934;47.998;9.832;2023-02-28T05:05:28;4.75;;;1.80;;
38123;SDS011;23934;47.998;9.832;2023-02-28T05:07:54;8.98;;;3.38;;
38123;SDS011;23934;47.998;9.832;2023-02-28T05:10:21;9.38;;;3.03;;
38123;SDS011;23934;47.998;9.832;2023-02-28T05:12:47;10.38;;;3.03;;
38123;SDS011;23934;47.998;9.832;2023-02-28T05:15:14;13.60;;;3.53;;
38123;SDS011;23934;47.998;9.832;2023-02-28T05:17:40;14.30;;;5.38;;
38123;SDS011;23934;47.998;9.832;2023-02-28T05:20:07;4.95;;;2.40;;
38123;SDS011;23934;47.998;9.832;2023-02-28T05:22:35;7.65;;;2.22;;
38123;SDS011;23934;47.998;9.832;2023-02-28T05:25:02;5.80;;;2.35;;
38123;SDS011;23934;47.998;9.832;2023-02-28T05:27:28;15.63;;;4.30;;
38123;SDS011;23934;47.998;9.832;2023-02-28T05:29:54;10.45;;;2.05;;
38123;SDS011;23934;47.998;9.832;2023-02-28T05:32:20;4.63;;;1.90;;
38123;SDS011;23934;47.998;9.832;2023-02-28T05:34:46;15.13;;;2.75;;
38123;SDS011;23934;47.998;9.832;2023-02-28T05:37:12;25.17;;;3.88;;
38123;SDS011;23934;47.998;9.832;2023-02-28T05:39:38;6.30;;;3.65;;
38123;SDS011;23934;47.998;9.832;2023-02-28T05:42:04;4.53;;;2.10;;
38123;SDS011;23934;47.998;9.832;2023-02-28T05:44:31;9.60;;;3.55;;
38123;SDS011;23934;47.998;9.832;2023-02-28T05:46:57;5.85;;;3.00;;
38123;SDS011;23934;47.998;9.832;2023-02-28T05:49:23;5.45;;;1.38;;
38123;SDS011;23934;47.998;9.832;2023-02-28T05:51:49;4.22;;;1.60;;
38123;SDS011;23934;47.998;9.832;2023-02-28T05:54:15;13.60;;;3.85;;
38123;SDS011;23934;47.998;9.832;2023-02-28T05:56:41;7.38;;;3.42;;
38123;SDS011;23934;47.998;9.832;2023-02-28T05:59:10;11.98;;;4.88;;
38123;SDS011;23934;47.998;9.832;2023-02-28T06:01:38;18.45;;;3.20;;
38123;SDS011;23934;47.998;9.832;2023-02-28T06:04:05;9.40;;;3.72;;
38123;SDS011;23934;47.998;9.832;2023-02-28T06:06:31;8.45;;;2.72;;
38123;SDS011;23934;47.998;9.832;2023-02-28T06:08:59;10.98;;;3.42;;
38123;SDS011;23934;47.998;9.832;2023-02-28T06:11:25;7.53;;;4.22;;
38123;SDS011;23934;47.998;9.832;2023-02-28T06:13:55;7.68;;;3.22;;
38123;SDS011;23934;47.998;9.832;2023-02-28T06:16:22;7.45;;;3.08;;
38123;SDS011;23934;47.998;9.832;2023-02-28T06:18:48;8.80;;;3.10;;
38123;SDS011;23934;47.998;9.832;2023-02-28T06:21:14;13.30;;;4.65;;
38123;SDS011;23934;47.998;9.832;2023-02-28T06:23:40;5.35;;;3.30;;
38123;SDS011;23934;47.998;9.832;2023-02-28T06:26:06;10.32;;;4.28;;
38123;SDS011;23934;47.998;9.832;2023-02-28T06:28:32;9.73;;;3.25;;
38123;SDS011;23934;47.998;9.832;2023-02-28T06:30:58;11.07;;;4.00;;
38123;SDS011;23934;47.998;9.832;2023-02-28T06:33:24;4.60;;;1.60;;
38123;SDS011;23934;47.998;9.832;2023-02-28T06:35:50;9.20;;;3.50;;
38123;SDS011;23934;47.998;9.832;2023-02-28T06:38:16;9.07;;;3.78;;
38123;SDS011;23934;47.998;9.832;2023-02-28T06:40:43;11.63;;;3.65;;
38123;SDS011;23934;47.998;9.832;2023-02-28T06:43:09;13.90;;;4.20;;
38123;SDS011;23934;47.998;9.832;2023-02-28T06:45:40;11.90;;;4.93;;
38123;SDS011;23934;47.998;9.832;2023-02-28T06:48:06;10.88;;;3.47;;
38123;SDS011;23934;47.998;9.832;2023-02-28T06:50:32;12.35;;;4.60;;
38123;SDS011;23934;47.998;9.832;2023-02-28T06:52:59;8.18;;;3.45;;
38123;SDS011;23934;47.998;9.832;2023-02-28T06:55:25;11.73;;;3.88;;
38123;SDS011;23934;47.998;9.832;2023-02-28T06:57:50;9.50;;;2.83;;
38123;SDS011;23934;47.998;9.832;2023-02-28T07:00:17;8.32;;;3.55;;
38123;SDS011;23934;47.998;9.832;2023-02-28T07:02:43;8.98;;;3.63;;
38123;SDS011;23934;47.998;9.832;2023-02-28T07:05:09;13.90;;;3.35;;
38123;SDS011;23934;47.998;9.832;2023-02-28T07:07:35;8.60;;;2.97;;
38123;SDS011;23934;47.998;9.832;2023-02-28T07:10:03;14.98;;;5.30;;
38123;SDS011;23934;47.998;9.832;2023-02-28T07:12:29;7.57;;;3.55;;
38123;SDS011;23934;47.998;9.832;2023-02-28T07:14:55;13.25;;;4.35;;
38123;SDS011;23934;47.998;9.832;2023-02-28T07:17:21;6.95;;;2.63;;
38123;SDS011;23934;47.998;9.832;2023-02-28T07:19:47;4.50;;;2.70;;
38123;SDS011;23934;47.998;9.832;2023-02-28T07:22:13;17.60;;;2.65;;
38123;SDS011;23934;47.998;9.832;2023-02-28T07:24:39;16.80;;;4.43;;
38123;SDS011;23934;47.998;9.832;2023-02-28T07:27:05;16.80;;;5.18;;
38123;SDS011;23934;47.998;9.832;2023-02-28T07:29:31;8.85;;;4.22;;
38123;SDS011;23934;47.998;9.832;2023-02-28T07:31:57;10.52;;;3.72;;
38123;SDS011;23934;47.998;9.832;2023-02-28T07:34:23;12.55;;;4.88;;
38123;SDS011;23934;47.998;9.832;2023-02-28T07:36:52;12.70;;;2.97;;
38123;SDS011;23934;47.998;9.832;2023-02-28T07:39:18;16.23;;;5.68;;
38123;SDS011;23934;47.998;9.832;2023-02-28T07:41:44;15.15;;;4.35;;
38123;SDS011;23934;47.998;9.832;2023-02-28T07:44:10;6.10;;;2.55;;
38123;SDS011;23934;47.998;9.832;2023-02-28T07:46:36;9.38;;;2.88;;
38123;SDS011;23934;47.998;9.832;2023-02-28T07:49:03;11.00;;;4.22;;
38123;SDS011;23934;47.998;9.832;2023-02-28T07:51:29;7.53;;;2.75;;
38123;SDS011;23934;47.998;9.832;2023-02-28T07:53:56;12.38;;;4.20;;
38123;SDS011;23934;47.998;9.832;2023-02-28T07:56:22;11.40;;;4.40;;
38123;SDS011;23934;47.998;9.832;2023-02-28T07:58:48;15.73;;;4.63;;
38123;SDS011;23934;47.998;9.832;2023-02-28T08:01:14;15.57;;;4.75;;
38123;SDS011;23934;47.998;9.832;2023-02-28T08:03:40;8.68;;;3.63;;
38123;SDS011;23934;47.998;9.832;2023-02-28T08:06:07;12.82;;;4.93;;
38123;SDS011;23934;47.998;9.832;2023-02-28T08:08:33;10.65;;;5.55;;
38123;SDS011;23934;47.998;9.832;2023-02-28T08:11:00;16.98;;;5.70;;
38123;SDS011;23934;47.998;9.832;2023-02-28T08:13:26;6.55;;;3.85;;
38123;SDS011;23934;47.998;9.832;2023-02-28T08:15:53;12.30;;;4.13;;
38123;SDS011;23934;47.998;9.832;2023-02-28T08:18:19;12.77;;;4.95;;
38123;SDS011;23934;47.998;9.832;2023-02-28T08:20:45;12.38;;;4.65;;
38123;SDS011;23934;47.998;9.832;2023-02-28T08:23:11;8.95;;;4.32;;
38123;SDS011;23934;47.998;9.832;2023-02-28T08:25:37;24.48;;;4.20;;
38123;SDS011;23934;47.998;9.832;2023-02-28T08:28:03;12.27;;;4.38;;
38123;SDS011;23934;47.998;9.832;2023-02-28T08:30:29;5.60;;;3.10;;
38123;SDS011;23934;47.998;9.832;2023-02-28T08:32:55;17.83;;;6.18;;
38123;SDS011;23934;47.998;9.832;2023-02-28T08:35:21;9.85;;;3.33;;
38123;SDS011;23934;47.998;9.832;2023-02-28T08:37:48;15.60;;;5.20;;
38123;SDS011;23934;47.998;9.832;2023-02-28T08:40:14;10.82;;;5.65;;
38123;SDS011;23934;47.998;9.832;2023-02-28T08:42:47;11.55;;;4.90;;
38123;SDS011;23934;47.998;9.832;2023-02-28T08:45:13;13.63;;;4.45;;
38123;SDS011;23934;47.998;9.832;2023-02-28T08:47:39;18.95;;;7.78;;
38123;SDS011;23934;47.998;9.832;2023-02-28T08:50:06;13.30;;;5.45;;
38123;SDS011;23934;47.998;9.832;2023-02-28T08:52:32;12.30;;;3.25;;
38123;SDS011;23934;47.998;9.832;2023-02-28T08:54:58;9.30;;;3.38;;
38123;SDS011;23934;47.998;9.832;2023-02-28T08:57:24;7.53;;;3.95;;
38123;SDS011;23934;47.998;9.832;2023-02-28T08:59:53;14.35;;;4.50;;
38123;SDS011;23934;47.998;9.832;2023-02-28T09:02:19;16.75;;;5.55;;
38123;SDS011;23934;47.998;9.832;2023-02-28T09:04:45;17.45;;;4.47;;
38123;SDS011;23934;47.998;9.832;2023-02-28T09:07:11;13.73;;;5.85;;
38123;SDS011;23934;47.998;9.832;2023-02-28T09:09:37;25.42;;;5.45;;
38123;SDS011;23934;47.998;9.832;2023-02-28T09:12:22;18.52;;;5.53;;
38123;SDS011;23934;47.998;9.832;2023-02-28T09:14:48;17.55;;;6.45;;
38123;SDS011;23934;47.998;9.832;2023-02-28T09:17:14;18.48;;;6.28;;
38123;SDS011;23934;47.998;9.832;2023-02-28T09:19:40;33.35;;;7.70;;
38123;SDS011;23934;47.998;9.832;2023-02-28T09:22:08;24.58;;;7.25;;
38123;SDS011;23934;47.998;9.832;2023-02-28T09:24:35;15.90;;;6.00;;
38123;SDS011;23934;47.998;9.832;2023-02-28T09:27:01;13.10;;;4.65;;
38123;SDS011;23934;47.998;9.832;2023-02-28T09:29:27;10.57;;;3.03;;
38123;SDS011;23934;47.998;9.832;2023-02-28T09:31:53;19.10;;;6.82;;
38123;SDS011;23934;47.998;9.832;2023-02-28T09:34:19;23.83;;;7.00;;
38123;SDS011;23934;47.998;9.832;2023-02-28T09:36:45;21.60;;;6.22;;
38123;SDS011;23934;47.998;9.832;2023-02-28T09:39:11;18.60;;;6.65;;
38123;SDS011;23934;47.998;9.832;2023-02-28T09:41:46;10.40;;;4.80;;
38123;SDS011;23934;47.998;9.832;2023-02-28T09:49:46;11.93;;;3.60;;
38123;SDS011;23934;47.998;9.832;2023-02-28T09:52:19;13.20;;;4.05;;
38123;SDS011;23934;47.998;9.832;2023-02-28T09:54:45;20.42;;;3.22;;
38123;SDS011;23934;47.998;9.832;2023-02-28T10:02:41;15.40;;;5.10;;
38123;SDS011;23934;47.998;9.832;2023-02-28T10:05:13;8.27;;;3.63;;
38123;SDS011;23934;47.998;9.832;2023-02-28T10:07:51;20.42;;;6.28;;
38123;SDS011;23934;47.998;9.832;2023-02-28T10:10:29;13.75;;;5.22;;
38123;SDS011;23934;47.998;9.832;2023-02-28T10:12:59;23.83;;;6.75;;
38123;SDS011;23934;47.998;9.832;2023-02-28T10:15:27;20.58;;;6.15;;
38123;SDS011;23934;47.998;9.832;2023-02-28T10:17:54;15.98;;;6.05;;
38123;SDS011;23934;47.998;9.832;2023-02-28T10:20:21;20.10;;;5.78;;
38123;SDS011;23934;47.998;9.832;2023-02-28T10:23:03;23.10;;;7.75;;
38123;SDS011;23934;47.998;9.832;2023-02-28T10:25:32;23.17;;;6.50;;
38123;SDS011;23934;47.998;9.832;2023-02-28T10:28:00;8.13;;;5.00;;
38123;SDS011;23934;47.998;9.832;2023-02-28T10:30:27;16.08;;;5.70;;
38123;SDS011;23934;47.998;9.832;2023-02-28T10:32:53;21.33;;;6.68;;
38123;SDS011;23934;47.998;9.832;2023-02-28T10:35:21;13.13;;;4.45;;
38123;SDS011;23934;47.998;9.832;2023-02-28T10:37:49;15.63;;;6.45;;
38123;SDS011;23934;47.998;9.832;2023-02-28T10:43:00;16.83;;;4.30;;
38123;SDS011;23934;47.998;9.832;2023-02-28T10:45:33;18.80;;;5.30;;
38123;SDS011;23934;47.998;9.832;2023-02-28T10:48:22;21.88;;;7.10;;
38123;SDS011;23934;47.998;9.832;2023-02-28T10:50:51;15.75;;;6.03;;
38123;SDS011;23934;47.998;9.832;2023-02-28T10:55:58;12.38;;;4.68;;
38123;SDS011;23934;47.998;9.832;2023-02-28T10:58:26;7.60;;;3.75;;
38123;SDS011;23934;47.998;9.832;2023-02-28T11:00:53;21.60;;;5.30;;
38123;SDS011;23934;47.998;9.832;2023-02-28T11:03:30;7.75;;;3.42;;
38123;SDS011;23934;47.998;9.832;2023-02-28T11:05:56;19.00;;;6.85;;
38123;SDS011;23934;47.998;9.832;2023-02-28T11:08:22;10.20;;;4.35;;
38123;SDS011;23934;47.998;9.832;2023-02-28T11:10:58;14.43;;;4.72;;
38123;SDS011;23934;47.998;9.832;2023-02-28T11:13:28;13.00;;;3.72;;
38123;SDS011;23934;47.998;9.832;2023-02-28T11:15:55;17.55;;;6.25;;
38123;SDS011;23934;47.998;9.832;2023-02-28T11:18:42;15.90;;;7.00;;
38123;SDS011;23934;47.998;9.832;2023-02-28T11:21:14;15.80;;;7.00;;
38123;SDS011;23934;47.998;9.832;2023-02-28T11:23:42;30.10;;;5.43;;
38123;SDS011;23934;47.998;9.832;2023-02-28T11:26:08;18.50;;;5.25;;
38123;SDS011;23934;47.998;9.832;2023-02-28T11:28:37;10.20;;;5.20;;
38123;SDS011;23934;47.998;9.832;2023-02-28T11:31:05;26.65;;;6.22;;
38123;SDS011;23934;47.998;9.832;2023-02-28T11:33:37;18.83;;;5.07;;
38123;SDS011;23934;47.998;9.832;2023-02-28T11:36:17;13.32;;;3.85;;
38123;SDS011;23934;47.998;9.832;2023-02-28T11:38:43;23.80;;;8.48;;
38123;SDS011;23934;47.998;9.832;2023-02-28T11:41:22;15.90;;;5.78;;
38123;SDS011;23934;47.998;9.832;2023-02-28T11:46:34;15.93;;;4.22;;
38123;SDS011;23934;47.998;9.832;2023-02-28T11:49:18;14.68;;;4.95;;
38123;SDS011;23934;47.998;9.832;2023-02-28T11:56:49;14.82;;;5.47;;
38123;SDS011;23934;47.998;9.832;2023-02-28T11:59:22;8.70;;;3.33;;
38123;SDS011;23934;47.998;9.832;2023-02-28T12:04:42;21.38;;;6.35;;
38123;SDS011;23934;47.998;9.832;2023-02-28T12:09:54;14.65;;;6.15;;
38123;SDS011;23934;47.998;9.832;2023-02-28T12:12:34;9.43;;;4.05;;
38123;SDS011;23934;47.998;9.832;2023-02-28T12:18:12;14.77;;;4.60;;
38123;SDS011;23934;47.998;9.832;2023-02-28T12:20:46;19.33;;;6.88;;
38123;SDS011;23934;47.998;9.832;2023-02-28T12:23:36;17.90;;;7.13;;
38123;SDS011;23934;47.998;9.832;2023-02-28T12:28:36;19.15;;;6.68;;
38123;SDS011;23934;47.998;9.832;2023-02-28T12:31:11;18.67;;;5.60;;
38123;SDS011;23934;47.998;9.832;2023-02-28T12:33:45;10.70;;;4.30;;
38123;SDS011;23934;47.998;9.832;2023-02-28T12:36:14;23.80;;;7.68;;
38123;SDS011;23934;47.998;9.832;2023-02-28T12:38:44;20.13;;;9.40;;
38123;SDS011;23934;47.998;9.832;2023-02-28T12:41:13;20.02;;;7.90;;
38123;SDS011;23934;47.998;9.832;2023-02-28T12:43:44;22.77;;;6.82;;
38123;SDS011;23934;47.998;9.832;2023-02-28T12:48:45;11.15;;;5.38;;
38123;SDS011;23934;47.998;9.832;2023-02-28T12:51:12;15.95;;;4.45;;
38123;SDS011;23934;47.998;9.832;2023-02-28T12:58:51;11.50;;;5.32;;
38123;SDS011;23934;47.998;9.832;2023-02-28T13:09:35;10.10;;;3.47;;
38123;SDS011;23934;47.998;9.832;2023-02-28T13:12:04;19.95;;;6.93;;
38123;SDS011;23934;47.998;9.832;2023-02-28T13:14:37;15.02;;;4.93;;
38123;SDS011;23934;47.998;9.832;2023-02-28T13:19:40;18.25;;;6.40;;
38123;SDS011;23934;47.998;9.832;2023-02-28T13:22:16;22.98;;;7.15;;
38123;SDS011;23934;47.998;9.832;2023-02-28T13:24:44;8.77;;;4.70;;
38123;SDS011;23934;47.998;9.832;2023-02-28T13:27:19;22.63;;;8.35;;
38123;SDS011;23934;47.998;9.832;2023-02-28T13:29:49;26.77;;;8.00;;
38123;SDS011;23934;47.998;9.832;2023-02-28T13:39:48;26.10;;;9.25;;
38123;SDS011;23934;47.998;9.832;2023-02-28T13:49:54;21.48;;;8.00;;
38123;SDS011;23934;47.998;9.832;2023-02-28T13:52:21;19.95;;;6.78;;
38123;SDS011;23934;47.998;9.832;2023-02-28T14:00:17;18.73;;;7.20;;
38123;SDS011;23934;47.998;9.832;2023-02-28T14:05:21;16.27;;;5.63;;
38123;SDS011;23934;47.998;9.832;2023-02-28T14:07:57;11.05;;;5.60;;
38123;SDS011;23934;47.998;9.832;2023-02-28T14:10:28;20.17;;;7.03;;
38123;SDS011;23934;47.998;9.832;2023-02-28T14:12:56;20.98;;;7.05;;
38123;SDS011;23934;47.998;9.832;2023-02-28T14:15:36;17.90;;;7.32;;
38123;SDS011;23934;47.998;9.832;2023-02-28T14:20:39;18.35;;;7.57;;
38123;SDS011;23934;47.998;9.832;2023-02-28T14:24:10;24.88;;;7.97;;
38123;SDS011;23934;47.998;9.832;2023-02-28T14:31:28;25.00;;;8.05;;
38123;SDS011;23934;47.998;9.832;2023-02-28T14:34:02;12.23;;;4.25;;
38123;SDS011;23934;47.998;9.832;2023-02-28T14:36:33;14.30;;;6.40;;
38123;SDS011;23934;47.998;9.832;2023-02-28T14:39:03;23.05;;;7.18;;
38123;SDS011;23934;47.998;9.832;2023-02-28T14:41:34;27.65;;;9.07;;
38123;SDS011;23934;47.998;9.832;2023-02-28T14:44:03;32.50;;;8.35;;
38123;SDS011;23934;47.998;9.832;2023-02-28T14:46:38;17.63;;;7.03;;
38123;SDS011;23934;47.998;9.832;2023-02-28T14:49:05;19.20;;;7.90;;
38123;SDS011;23934;47.998;9.832;2023-02-28T14:51:32;24.33;;;8.32;;
38123;SDS011;23934;47.998;9.832;2023-02-28T14:53:59;18.65;;;7.75;;
38123;SDS011;23934;47.998;9.832;2023-02-28T14:56:27;33.63;;;11.60;;
38123;SDS011;23934;47.998;9.832;2023-02-28T14:58:55;17.55;;;7.55;;
38123;SDS011;23934;47.998;9.832;2023-02-28T15:01:22;22.38;;;7.80;;
38123;SDS011;23934;47.998;9.832;2023-02-28T15:03:48;27.35;;;9.40;;
38123;SDS011;23934;47.998;9.832;2023-02-28T15:06:22;27.08;;;8.80;;
38123;SDS011;23934;47.998;9.832;2023-02-28T15:09:01;26.75;;;8.27;;
38123;SDS011;23934;47.998;9.832;2023-02-28T15:11:32;24.80;;;7.95;;
38123;SDS011;23934;47.998;9.832;2023-02-28T15:13:58;18.58;;;8.32;;
38123;SDS011;23934;47.998;9.832;2023-02-28T15:16:30;34.20;;;9.52;;
38123;SDS011;23934;47.998;9.832;2023-02-28T15:18:58;25.20;;;9.55;;
38123;SDS011;23934;47.998;9.832;2023-02-28T15:21:25;14.88;;;5.82;;
38123;SDS011;23934;47.998;9.832;2023-02-28T15:23:54;27.48;;;8.82;;
38123;SDS011;23934;47.998;9.832;2023-02-28T15:26:21;20.30;;;8.05;;
38123;SDS011;23934;47.998;9.832;2023-02-28T15:28:49;25.67;;;7.70;;
38123;SDS011;23934;47.998;9.832;2023-02-28T15:31:23;28.23;;;9.25;;
38123;SDS011;23934;47.998;9.832;2023-02-28T15:33:52;31.00;;;9.88;;
38123;SDS011;23934;47.998;9.832;2023-02-28T15:36:19;30.23;;;10.77;;
38123;SDS011;23934;47.998;9.832;2023-02-28T15:38:50;21.23;;;8.00;;
38123;SDS011;23934;47.998;9.832;2023-02-28T15:46:37;23.08;;;8.55;;
38123;SDS011;23934;47.998;9.832;2023-02-28T15:49:03;17.38;;;8.25;;
38123;SDS011;23934;47.998;9.832;2023-02-28T15:51:30;24.05;;;9.73;;
38123;SDS011;23934;47.998;9.832;2023-02-28T15:54:04;24.13;;;8.32;;
38123;SDS011;23934;47.998;9.832;2023-02-28T15:56:31;25.85;;;8.88;;
38123;SDS011;23934;47.998;9.832;2023-02-28T15:58:59;37.75;;;9.25;;
38123;SDS011;23934;47.998;9.832;2023-02-28T16:01:26;27.80;;;10.43;;
38123;SDS011;23934;47.998;9.832;2023-02-28T16:03:55;28.63;;;9.88;;
38123;SDS011;23934;47.998;9.832;2023-02-28T16:08:47;22.50;;;6.80;;
38123;SDS011;23934;47.998;9.832;2023-02-28T16:11:13;32.30;;;8.73;;
38123;SDS011;23934;47.998;9.832;2023-02-28T16:13:40;28.05;;;9.55;;
38123;SDS011;23934;47.998;9.832;2023-02-28T16:16:06;21.98;;;8.75;;
38123;SDS011;23934;47.998;9.832;2023-02-28T16:18:32;22.15;;;9.45;;
38123;SDS011;23934;47.998;9.832;2023-02-28T16:20:58;21.92;;;7.95;;
38123;SDS011;23934;47.998;9.832;2023-02-28T16:23:24;19.40;;;7.60;;
38123;SDS011;23934;47.998;9.832;2023-02-28T16:25:49;28.10;;;8.60;;
38123;SDS011;23934;47.998;9.832;2023-02-28T16:28:20;21.42;;;8.02;;
38123;SDS011;23934;47.998;9.832;2023-02-28T16:30:46;24.40;;;9.30;;
38123;SDS011;23934;47.998;9.832;2023-02-28T16:33:12;33.85;;;8.77;;
38123;SDS011;23934;47.998;9.832;2023-02-28T16:35:38;22.88;;;7.28;;
38123;SDS011;23934;47.998;9.832;2023-02-28T16:38:04;27.15;;;8.65;;
38123;SDS011;23934;47.998;9.832;2023-02-28T16:40:33;20.05;;;7.53;;
38123;SDS011;23934;47.998;9.832;2023-02-28T16:42:59;23.60;;;8.05;;
38123;SDS011;23934;47.998;9.832;2023-02-28T16:45:27;21.85;;;8.43;;
38123;SDS011;23934;47.998;9.832;2023-02-28T16:47:53;18.02;;;6.55;;
38123;SDS011;23934;47.998;9.832;2023-02-28T16:50:23;18.33;;;7.00;;
38123;SDS011;23934;47.998;9.832;2023-02-28T16:52:50;29.20;;;8.77;;